Shirahamamaru — JG4872 — position and weather

sailwx.info

Track history (hours):
 
Tides and Currents Weather Stations Pressure Air Temp Water Temp Dewpoint Dewpoint Depression Visibility Wind Speed Wind Dir Waves Ship Positions

Shirahamamaru

Last reported at 2017-Jan-18 09:33 UTC. Time now 2017-Jan-18 10:14 UTC.
Position N 35°11' E 139°48'.

Length 79 m; draft 3.2 m.

Type: Passenger vessel. MMSI: 431000239.

Date/timePositionNaut miles runAvg speedWind from/ knotsBaromVisibWave heightAir tempDewpointWater temp
2017-Jan-18 09:33N 35°11' E 139°48'5 4.3
2017-Jan-18 08:29N 35°13' E 139°43'6 6.2
2017-Jan-18 07:33N 35°10' E 139°49'6 5.4
2017-Jan-18 06:30N 35°13' E 139°43'0 0.2
2017-Jan-18 05:33N 35°13' E 139°43'6 4.0
2017-Jan-18 04:06N 35°10' E 139°49'2 4.4
2017-Jan-18 03:32N 35°12' E 139°46'3 3.5
2017-Jan-18 02:33N 35°13' E 139°43'5 4.8
2017-Jan-18 01:33N 35°11' E 139°48'5 4.5
2017-Jan-18 00:29N 35°13' E 139°43'3 3.0
2017-Jan-17 23:33N 35°12' E 139°46'1 1.1
2017-Jan-17 22:33N 35°13' E 139°45'2 1.9
2017-Jan-17 21:33N 35°12' E 139°47'1 0.1
2017-Jan-17 10:33N 35°12' E 139°46'2 2.1
2017-Jan-17 09:33N 35°11' E 139°48'4 3.9
2017-Jan-17 08:33N 35°13' E 139°44'5 4.9
2017-Jan-17 07:33N 35°10' E 139°49'6 5.5
2017-Jan-17 06:29N 35°13' E 139°43'0 0.1
2017-Jan-17 05:31N 35°13' E 139°43'6 6.1
2017-Jan-17 04:33N 35°10' E 139°49'2 2.5
2017-Jan-17 03:33N 35°11' E 139°46'3 3.4
2017-Jan-17 02:34N 35°13' E 139°43'5 4.8
2017-Jan-17 01:33N 35°11' E 139°48'4 4.2
2017-Jan-17 00:33N 35°13' E 139°44'2 2.3
2017-Jan-16 23:33N 35°12' E 139°46'1 0.9
2017-Jan-16 22:34N 35°12' E 139°45'2 1.8
2017-Jan-16 21:34N 35°12' E 139°47'1 0.1
2017-Jan-16 10:33N 35°12' E 139°46'2 2.1
2017-Jan-16 09:33N 35°11' E 139°48'4 3.9
2017-Jan-16 08:33N 35°13' E 139°44'5 4.7
2017-Jan-16 07:33N 35°10' E 139°49'6 5.2
2017-Jan-16 06:28N 35°13' E 139°43'0 0.1
2017-Jan-16 05:29N 35°13' E 139°43'6 6.3
2017-Jan-16 04:33N 35°10' E 139°49'2 2.5
2017-Jan-16 03:33N 35°12' E 139°47'3 3.5
2017-Jan-16 02:33N 35°13' E 139°43'5 4.8
2017-Jan-16 01:33N 35°11' E 139°48'5 4.3
2017-Jan-16 00:27N 35°13' E 139°43'3 3.3
2017-Jan-15 23:33N 35°12' E 139°46'2 1.7
2017-Jan-15 22:31N 35°13' E 139°44'3 2.8
2017-Jan-15 21:33N 35°12' E 139°47'1 0.1
2017-Jan-15 10:32N 35°12' E 139°46'3 2.6
2017-Jan-15 09:32N 35°11' E 139°48'5 4.5
2017-Jan-15 08:26N 35°13' E 139°43'6 6.6
2017-Jan-15 07:34N 35°10' E 139°49'6 5.4
2017-Jan-15 06:30N 35°13' E 139°43'4 4.1
2017-Jan-15 05:33N 35°12' E 139°47'2 2.2
2017-Jan-15 04:33N 35°13' E 139°45'3 3.1
2017-Jan-15 03:33N 35°11' E 139°48'5 4.5
2017-Jan-15 02:28N 35°13' E 139°43'5 5.4
2017-Jan-15 01:33N 35°11' E 139°48'5 4.6
2017-Jan-15 00:31N 35°13' E 139°43'3 3.0
2017-Jan-14 23:33N 35°12' E 139°46'1 1.5
2017-Jan-14 22:33N 35°13' E 139°45'2 2.4
2017-Jan-14 21:33N 35°11' E 139°47'2 0.2
2017-Jan-14 11:06N 35°10' E 139°49'4 6.2
2017-Jan-14 10:33N 35°12' E 139°46'2 2.4
2017-Jan-14 09:33N 35°11' E 139°48'5 4.3
2017-Jan-14 08:28N 35°13' E 139°43'6 6.3
2017-Jan-14 07:33N 35°10' E 139°49'6 5.5
2017-Jan-14 06:31N 35°13' E 139°43'4 3.9
2017-Jan-14 05:33N 35°11' E 139°47'2 2.3
2017-Jan-14 04:33N 35°13' E 139°45'4 3.5
2017-Jan-14 03:31N 35°11' E 139°48'2 0.6
2017-Jan-13 23:33N 35°12' E 139°46'1 1.2
2017-Jan-13 22:33N 35°13' E 139°45'2 2.2
2017-Jan-13 21:32N 35°11' E 139°47'2 0.2
2017-Jan-13 11:06N 35°10' E 139°49'4 6.4
2017-Jan-13 10:33N 35°12' E 139°46'3 2.5
2017-Jan-13 09:32N 35°11' E 139°48'5 4.6
2017-Jan-13 08:29N 35°13' E 139°43'6 6.1
2017-Jan-13 07:33N 35°10' E 139°49'6 5.4
2017-Jan-13 06:29N 35°13' E 139°43'0 0.1
2017-Jan-13 05:33N 35°13' E 139°43'6 5.9
2017-Jan-13 04:33N 35°10' E 139°49'2 2.3
2017-Jan-13 03:34N 35°11' E 139°47'4 3.6
2017-Jan-13 02:33N 35°13' E 139°43'5 5.0
2017-Jan-13 01:33N 35°11' E 139°48'5 4.6
2017-Jan-13 00:31N 35°13' E 139°43'4 3.7
2017-Jan-12 23:33N 35°12' E 139°47'2 2.4
2017-Jan-12 22:31N 35°13' E 139°44'0 0.4
2017-Jan-12 21:33N 35°13' E 139°44'1 0.9
2017-Jan-12 20:33N 35°13' E 139°43'0 0.0
2017-Jan-12 11:06N 35°13' E 139°43'1 2.0
2017-Jan-12 10:34N 35°13' E 139°44'1 1.0
2017-Jan-12 09:33N 35°13' E 139°43'4 4.3
2017-Jan-12 08:33N 35°11' E 139°47'2 2.4
2017-Jan-12 07:33N 35°13' E 139°45'2 2.1
2017-Jan-12 06:32N 35°11' E 139°47'2 1.7
2017-Jan-12 05:29N 35°10' E 139°49'6 6.2
2017-Jan-12 04:32N 35°13' E 139°43'1 0.7
2017-Jan-12 03:29N 35°13' E 139°44'5 5.5
2017-Jan-12 02:32N 35°10' E 139°49'5 4.6
2017-Jan-12 01:33N 35°13' E 139°44'3 2.6
2017-Jan-12 00:34N 35°11' E 139°47'3 2.7
2017-Jan-11 23:33N 35°13' E 139°44'1 1.5
2017-Jan-11 22:33N 35°12' E 139°46'2 1.5
2017-Jan-11 21:32N 35°13' E 139°44'1 0.1
2017-Jan-11 11:07N 35°13' E 139°43'610.1
2017-Jan-11 10:34N 35°10' E 139°49'3 3.3
2017-Jan-11 09:33N 35°12' E 139°45'2 1.7
2017-Jan-11 08:32N 35°11' E 139°47'3 2.8
2017-Jan-11 07:31N 35°13' E 139°44'3 2.8
2017-Jan-11 06:33N 35°11' E 139°47'2 1.9
2017-Jan-11 05:32N 35°10' E 139°49'6 5.9
2017-Jan-11 04:33N 35°13' E 139°43'1 0.9
2017-Jan-11 03:28N 35°13' E 139°44'5 4.8
2017-Jan-11 02:26N 35°10' E 139°49'4 4.8
2017-Jan-11 01:34N 35°13' E 139°45'2 2.3
2017-Jan-11 00:33N 35°11' E 139°47'3 2.7
2017-Jan-10 23:32N 35°13' E 139°44'2 1.6
2017-Jan-10 22:33N 35°12' E 139°46'1 1.4
2017-Jan-10 21:32N 35°13' E 139°44'1 0.1
2017-Jan-10 11:11N 35°13' E 139°43'6 8.9
2017-Jan-10 10:34N 35°10' E 139°49'3 2.8
2017-Jan-10 09:33N 35°12' E 139°46'1 1.0
2017-Jan-10 08:33N 35°11' E 139°47'4 3.1
2017-Jan-10 07:18N 35°13' E 139°43'4 5.1
2017-Jan-10 06:33N 35°11' E 139°47'2 2.1
2017-Jan-10 05:33N 35°10' E 139°49'6 5.9
2017-Jan-10 04:33N 35°13' E 139°43'1 0.8
2017-Jan-10 03:29N 35°13' E 139°44'5 5.0
2017-Jan-10 02:28N 35°10' E 139°49'5 4.9
2017-Jan-10 01:32N 35°13' E 139°44'3 2.6
2017-Jan-10 00:33N 35°11' E 139°47'2 2.2
2017-Jan-09 23:33N 35°13' E 139°45'1 1.3
2017-Jan-09 22:33N 35°12' E 139°46'1 1.1
2017-Jan-09 21:33N 35°12' E 139°45'2 0.2
2017-Jan-09 11:11N 35°13' E 139°43'6 9.1
2017-Jan-09 10:33N 35°10' E 139°49'3 3.2
2017-Jan-09 09:33N 35°13' E 139°46'1 1.4
2017-Jan-09 08:32N 35°11' E 139°47'2 2.1
2017-Jan-09 07:33N 35°13' E 139°45'2 1.9
2017-Jan-09 06:33N 35°12' E 139°47'2 2.2
2017-Jan-09 05:32N 35°13' E 139°45'2 1.7
2017-Jan-09 04:33N 35°12' E 139°46'1 0.6
2017-Jan-09 03:33N 35°12' E 139°46'2 1.6
2017-Jan-09 02:33N 35°11' E 139°47'2 2.3
2017-Jan-09 01:34N 35°13' E 139°45'2 2.3
2017-Jan-09 00:33N 35°11' E 139°47'3 2.9
2017-Jan-08 23:33N 35°13' E 139°44'1 1.2
2017-Jan-08 22:33N 35°13' E 139°43'0 0.0
2017-Jan-08 21:33N 35°13' E 139°43'  
Track history (hours):
 
Tides and Currents Weather Stations Pressure Air Temp Water Temp Dewpoint Dewpoint Depression Visibility Wind Speed Wind Dir Waves Ship Positions

Shirahamamaru

Last reported at 2017-Jan-18 09:33 UTC. Time now 2017-Jan-18 10:14 UTC.
Position N 35°11' E 139°48'.

Length 79 m; draft 3.2 m.

Type: Passenger vessel. MMSI: 431000239.

Date/timePositionNaut miles runAvg speedWind from/ knotsBaromVisibWave heightAir tempDewpointWater temp
2017-Jan-18 09:33N 35°11' E 139°48'5 4.3
2017-Jan-18 08:29N 35°13' E 139°43'6 6.2
2017-Jan-18 07:33N 35°10' E 139°49'6 5.4
2017-Jan-18 06:30N 35°13' E 139°43'0 0.2
2017-Jan-18 05:33N 35°13' E 139°43'6 4.0
2017-Jan-18 04:06N 35°10' E 139°49'2 4.4
2017-Jan-18 03:32N 35°12' E 139°46'3 3.5
2017-Jan-18 02:33N 35°13' E 139°43'5 4.8
2017-Jan-18 01:33N 35°11' E 139°48'5 4.5
2017-Jan-18 00:29N 35°13' E 139°43'3 3.0
2017-Jan-17 23:33N 35°12' E 139°46'1 1.1
2017-Jan-17 22:33N 35°13' E 139°45'2 1.9
2017-Jan-17 21:33N 35°12' E 139°47'1 0.1
2017-Jan-17 10:33N 35°12' E 139°46'2 2.1
2017-Jan-17 09:33N 35°11' E 139°48'4 3.9
2017-Jan-17 08:33N 35°13' E 139°44'5 4.9
2017-Jan-17 07:33N 35°10' E 139°49'6 5.5
2017-Jan-17 06:29N 35°13' E 139°43'0 0.1
2017-Jan-17 05:31N 35°13' E 139°43'6 6.1
2017-Jan-17 04:33N 35°10' E 139°49'2 2.5
2017-Jan-17 03:33N 35°11' E 139°46'3 3.4
2017-Jan-17 02:34N 35°13' E 139°43'5 4.8
2017-Jan-17 01:33N 35°11' E 139°48'4 4.2
2017-Jan-17 00:33N 35°13' E 139°44'2 2.3
2017-Jan-16 23:33N 35°12' E 139°46'1 0.9
2017-Jan-16 22:34N 35°12' E 139°45'2 1.8
2017-Jan-16 21:34N 35°12' E 139°47'1 0.1
2017-Jan-16 10:33N 35°12' E 139°46'2 2.1
2017-Jan-16 09:33N 35°11' E 139°48'4 3.9
2017-Jan-16 08:33N 35°13' E 139°44'5 4.7
2017-Jan-16 07:33N 35°10' E 139°49'6 5.2
2017-Jan-16 06:28N 35°13' E 139°43'0 0.1
2017-Jan-16 05:29N 35°13' E 139°43'6 6.3
2017-Jan-16 04:33N 35°10' E 139°49'2 2.5
2017-Jan-16 03:33N 35°12' E 139°47'3 3.5
2017-Jan-16 02:33N 35°13' E 139°43'5 4.8
2017-Jan-16 01:33N 35°11' E 139°48'5 4.3
2017-Jan-16 00:27N 35°13' E 139°43'3 3.3
2017-Jan-15 23:33N 35°12' E 139°46'2 1.7
2017-Jan-15 22:31N 35°13' E 139°44'3 2.8
2017-Jan-15 21:33N 35°12' E 139°47'1 0.1
2017-Jan-15 10:32N 35°12' E 139°46'3 2.6
2017-Jan-15 09:32N 35°11' E 139°48'5 4.5
2017-Jan-15 08:26N 35°13' E 139°43'6 6.6
2017-Jan-15 07:34N 35°10' E 139°49'6 5.4
2017-Jan-15 06:30N 35°13' E 139°43'4 4.1
2017-Jan-15 05:33N 35°12' E 139°47'2 2.2
2017-Jan-15 04:33N 35°13' E 139°45'3 3.1
2017-Jan-15 03:33N 35°11' E 139°48'5 4.5
2017-Jan-15 02:28N 35°13' E 139°43'5 5.4
2017-Jan-15 01:33N 35°11' E 139°48'5 4.6
2017-Jan-15 00:31N 35°13' E 139°43'3 3.0
2017-Jan-14 23:33N 35°12' E 139°46'1 1.5
2017-Jan-14 22:33N 35°13' E 139°45'2 2.4
2017-Jan-14 21:33N 35°11' E 139°47'2 0.2
2017-Jan-14 11:06N 35°10' E 139°49'4 6.2
2017-Jan-14 10:33N 35°12' E 139°46'2 2.4
2017-Jan-14 09:33N 35°11' E 139°48'5 4.3
2017-Jan-14 08:28N 35°13' E 139°43'6 6.3
2017-Jan-14 07:33N 35°10' E 139°49'6 5.5
2017-Jan-14 06:31N 35°13' E 139°43'4 3.9
2017-Jan-14 05:33N 35°11' E 139°47'2 2.3
2017-Jan-14 04:33N 35°13' E 139°45'4 3.5
2017-Jan-14 03:31N 35°11' E 139°48'2 0.6
2017-Jan-13 23:33N 35°12' E 139°46'1 1.2
2017-Jan-13 22:33N 35°13' E 139°45'2 2.2
2017-Jan-13 21:32N 35°11' E 139°47'2 0.2
2017-Jan-13 11:06N 35°10' E 139°49'4 6.4
2017-Jan-13 10:33N 35°12' E 139°46'3 2.5
2017-Jan-13 09:32N 35°11' E 139°48'5 4.6
2017-Jan-13 08:29N 35°13' E 139°43'6 6.1
2017-Jan-13 07:33N 35°10' E 139°49'6 5.4
2017-Jan-13 06:29N 35°13' E 139°43'0 0.1
2017-Jan-13 05:33N 35°13' E 139°43'6 5.9
2017-Jan-13 04:33N 35°10' E 139°49'2 2.3
2017-Jan-13 03:34N 35°11' E 139°47'4 3.6
2017-Jan-13 02:33N 35°13' E 139°43'5 5.0
2017-Jan-13 01:33N 35°11' E 139°48'5 4.6
2017-Jan-13 00:31N 35°13' E 139°43'4 3.7
2017-Jan-12 23:33N 35°12' E 139°47'2 2.4
2017-Jan-12 22:31N 35°13' E 139°44'0 0.4
2017-Jan-12 21:33N 35°13' E 139°44'1 0.9
2017-Jan-12 20:33N 35°13' E 139°43'0 0.0
2017-Jan-12 11:06N 35°13' E 139°43'1 2.0
2017-Jan-12 10:34N 35°13' E 139°44'1 1.0
2017-Jan-12 09:33N 35°13' E 139°43'4 4.3
2017-Jan-12 08:33N 35°11' E 139°47'2 2.4
2017-Jan-12 07:33N 35°13' E 139°45'2 2.1
2017-Jan-12 06:32N 35°11' E 139°47'2 1.7
2017-Jan-12 05:29N 35°10' E 139°49'6 6.2
2017-Jan-12 04:32N 35°13' E 139°43'1 0.7
2017-Jan-12 03:29N 35°13' E 139°44'5 5.5
2017-Jan-12 02:32N 35°10' E 139°49'5 4.6
2017-Jan-12 01:33N 35°13' E 139°44'3 2.6
2017-Jan-12 00:34N 35°11' E 139°47'3 2.7
2017-Jan-11 23:33N 35°13' E 139°44'1 1.5
2017-Jan-11 22:33N 35°12' E 139°46'2 1.5
2017-Jan-11 21:32N 35°13' E 139°44'1 0.1
2017-Jan-11 11:07N 35°13' E 139°43'610.1
2017-Jan-11 10:34N 35°10' E 139°49'3 3.3
2017-Jan-11 09:33N 35°12' E 139°45'2 1.7
2017-Jan-11 08:32N 35°11' E 139°47'3 2.8
2017-Jan-11 07:31N 35°13' E 139°44'3 2.8
2017-Jan-11 06:33N 35°11' E 139°47'2 1.9
2017-Jan-11 05:32N 35°10' E 139°49'6 5.9
2017-Jan-11 04:33N 35°13' E 139°43'1 0.9
2017-Jan-11 03:28N 35°13' E 139°44'5 4.8
2017-Jan-11 02:26N 35°10' E 139°49'4 4.8
2017-Jan-11 01:34N 35°13' E 139°45'2 2.3
2017-Jan-11 00:33N 35°11' E 139°47'3 2.7
2017-Jan-10 23:32N 35°13' E 139°44'2 1.6
2017-Jan-10 22:33N 35°12' E 139°46'1 1.4
2017-Jan-10 21:32N 35°13' E 139°44'1 0.1
2017-Jan-10 11:11N 35°13' E 139°43'6 8.9
2017-Jan-10 10:34N 35°10' E 139°49'3 2.8
2017-Jan-10 09:33N 35°12' E 139°46'1 1.0
2017-Jan-10 08:33N 35°11' E 139°47'4 3.1
2017-Jan-10 07:18N 35°13' E 139°43'4 5.1
2017-Jan-10 06:33N 35°11' E 139°47'2 2.1
2017-Jan-10 05:33N 35°10' E 139°49'6 5.9
2017-Jan-10 04:33N 35°13' E 139°43'1 0.8
2017-Jan-10 03:29N 35°13' E 139°44'5 5.0
2017-Jan-10 02:28N 35°10' E 139°49'5 4.9
2017-Jan-10 01:32N 35°13' E 139°44'3 2.6
2017-Jan-10 00:33N 35°11' E 139°47'2 2.2
2017-Jan-09 23:33N 35°13' E 139°45'1 1.3
2017-Jan-09 22:33N 35°12' E 139°46'1 1.1
2017-Jan-09 21:33N 35°12' E 139°45'2 0.2
2017-Jan-09 11:11N 35°13' E 139°43'6 9.1
2017-Jan-09 10:33N 35°10' E 139°49'3 3.2
2017-Jan-09 09:33N 35°13' E 139°46'1 1.4
2017-Jan-09 08:32N 35°11' E 139°47'2 2.1
2017-Jan-09 07:33N 35°13' E 139°45'2 1.9
2017-Jan-09 06:33N 35°12' E 139°47'2 2.2
2017-Jan-09 05:32N 35°13' E 139°45'2 1.7
2017-Jan-09 04:33N 35°12' E 139°46'1 0.6
2017-Jan-09 03:33N 35°12' E 139°46'2 1.6
2017-Jan-09 02:33N 35°11' E 139°47'2 2.3
2017-Jan-09 01:34N 35°13' E 139°45'2 2.3
2017-Jan-09 00:33N 35°11' E 139°47'3 2.9
2017-Jan-08 23:33N 35°13' E 139°44'1 1.2
2017-Jan-08 22:33N 35°13' E 139°43'0 0.0
2017-Jan-08 21:33N 35°13' E 139°43'  

Dump ship's entire track history